createdAt,value
2023-05-17T00:00:57.220Z,22.74
2023-05-17T00:01:57.127Z,22.78
2023-05-17T00:02:57.116Z,22.80
2023-05-17T00:03:57.082Z,22.84
2023-05-17T00:04:57.201Z,22.88
2023-05-17T00:05:57.111Z,22.91
2023-05-17T00:06:57.044Z,22.94
2023-05-17T00:07:57.031Z,22.97
2023-05-17T00:08:57.021Z,23.00
2023-05-17T00:09:57.003Z,23.03
2023-05-17T00:10:56.985Z,23.05
2023-05-17T00:11:57.069Z,23.08
2023-05-17T00:12:56.961Z,23.11
2023-05-17T00:13:56.954Z,23.13
2023-05-17T00:14:56.931Z,23.15
2023-05-17T00:15:56.917Z,23.17
2023-05-17T00:16:56.913Z,23.19
2023-05-17T00:17:56.969Z,23.21
2023-05-17T00:18:56.931Z,23.23
2023-05-17T00:19:56.869Z,23.24
2023-05-17T00:20:56.837Z,23.25
2023-05-17T00:21:56.821Z,23.26
2023-05-17T00:22:56.814Z,23.28
2023-05-17T00:23:56.800Z,23.29
2023-05-17T00:24:56.772Z,23.30
2023-05-17T00:25:56.745Z,23.31
2023-05-17T00:26:56.745Z,23.32
2023-05-17T00:27:56.825Z,23.32
2023-05-17T00:28:56.696Z,23.33
2023-05-17T00:29:56.692Z,23.33
2023-05-17T00:30:56.662Z,23.34
2023-05-17T00:31:56.647Z,23.35
2023-05-17T00:32:56.694Z,23.36
2023-05-17T00:33:56.626Z,23.36
2023-05-17T00:34:56.649Z,23.37
2023-05-17T00:35:56.617Z,23.37
2023-05-17T00:36:56.577Z,23.38
2023-05-17T00:37:56.577Z,23.38
2023-05-17T00:38:56.554Z,23.39
2023-05-17T00:39:56.534Z,23.38
2023-05-17T00:40:56.514Z,23.39
2023-05-17T00:41:56.501Z,23.40
2023-05-17T00:42:56.489Z,23.39
2023-05-17T00:43:56.575Z,23.40
2023-05-17T00:44:56.458Z,23.40
2023-05-17T00:45:56.445Z,23.40
2023-05-17T00:46:56.421Z,23.41
2023-05-17T00:47:56.527Z,23.41
2023-05-17T00:48:56.410Z,23.42
2023-05-17T00:49:56.402Z,23.41
2023-05-17T00:50:56.399Z,23.42
2023-05-17T00:51:56.387Z,23.42
2023-05-17T00:52:56.391Z,23.42
2023-05-17T00:53:56.381Z,23.43
2023-05-17T00:54:56.380Z,23.42
2023-05-17T00:55:56.361Z,23.42
2023-05-17T00:56:56.346Z,23.43
2023-05-17T00:57:56.357Z,23.42
2023-05-17T00:58:56.385Z,23.43
2023-05-17T00:59:56.375Z,23.43
2023-05-17T01:00:56.355Z,23.43
2023-05-17T01:01:56.473Z,23.43
2023-05-17T01:02:56.461Z,23.43
2023-05-17T01:03:56.370Z,23.44
2023-05-17T01:04:56.346Z,23.44
2023-05-17T01:05:56.306Z,23.44
2023-05-17T01:06:56.305Z,23.44
2023-05-17T01:07:56.301Z,23.43
2023-05-17T01:08:56.309Z,23.44
2023-05-17T01:09:56.310Z,23.44
2023-05-17T01:10:56.327Z,23.44
2023-05-17T01:11:56.326Z,23.43
2023-05-17T01:12:56.318Z,23.43
2023-05-17T01:13:56.305Z,23.43
2023-05-17T01:14:56.304Z,23.43
2023-05-17T01:15:56.376Z,23.43
2023-05-17T01:16:56.270Z,23.43
2023-05-17T01:17:56.331Z,23.43
2023-05-17T01:18:56.372Z,23.43
2023-05-17T01:19:56.307Z,23.43
2023-05-17T01:20:56.239Z,23.43
2023-05-17T01:21:56.237Z,23.44
2023-05-17T01:22:56.209Z,23.44
2023-05-17T01:23:56.201Z,23.43
2023-05-17T01:24:56.198Z,23.44
2023-05-17T01:25:56.183Z,23.44
2023-05-17T01:26:56.195Z,23.43
2023-05-17T01:27:56.177Z,23.43
2023-05-17T01:28:56.168Z,23.44
2023-05-17T01:29:56.160Z,23.43
2023-05-17T01:30:56.203Z,23.43
2023-05-17T01:31:56.258Z,23.44
2023-05-17T01:32:56.227Z,23.43
2023-05-17T01:33:56.213Z,23.44
2023-05-17T01:34:56.130Z,23.44
2023-05-17T01:35:56.112Z,23.43
2023-05-17T01:36:56.108Z,23.44
2023-05-17T01:37:56.088Z,23.44
2023-05-17T01:38:56.076Z,23.44
2023-05-17T01:39:56.087Z,23.43
2023-05-17T01:40:56.083Z,23.44
2023-05-17T01:41:56.091Z,23.45
2023-05-17T01:42:56.074Z,23.45
2023-05-17T01:43:56.070Z,23.44
2023-05-17T01:44:56.057Z,23.44
2023-05-17T01:45:56.048Z,23.43
2023-05-17T01:46:56.020Z,23.43
2023-05-17T01:47:56.157Z,23.43
2023-05-17T01:48:56.120Z,23.43
2023-05-17T01:49:56.097Z,23.43
2023-05-17T01:50:55.992Z,23.43
2023-05-17T01:51:55.987Z,23.43
2023-05-17T01:52:55.988Z,23.43
2023-05-17T01:53:55.949Z,23.43
2023-05-17T01:54:55.940Z,23.43
2023-05-17T01:55:55.928Z,23.43
2023-05-17T01:56:55.915Z,23.43
2023-05-17T01:57:55.926Z,23.43
2023-05-17T01:58:55.908Z,23.43
2023-05-17T01:59:55.902Z,23.43
2023-05-17T02:00:55.952Z,23.43
2023-05-17T02:01:55.916Z,23.43
2023-05-17T02:02:55.958Z,23.43
2023-05-17T02:03:55.955Z,23.43
2023-05-17T02:04:55.900Z,23.43
2023-05-17T02:05:55.887Z,23.43
2023-05-17T02:06:55.867Z,23.43
2023-05-17T02:07:55.861Z,23.43
2023-05-17T02:08:55.848Z,23.44
2023-05-17T02:09:55.838Z,23.43
2023-05-17T02:10:55.835Z,23.43
2023-05-17T02:11:55.820Z,23.42
2023-05-17T02:12:55.819Z,23.43
2023-05-17T02:13:55.801Z,23.44
2023-05-17T02:14:55.796Z,23.43
2023-05-17T02:15:55.783Z,23.44
2023-05-17T02:16:55.765Z,23.44
2023-05-17T02:17:55.801Z,23.44
2023-05-17T02:18:55.836Z,23.44
2023-05-17T02:19:55.850Z,23.44
2023-05-17T02:20:55.724Z,23.44
2023-05-17T02:21:55.716Z,23.44
2023-05-17T02:22:55.696Z,23.43
2023-05-17T02:23:55.700Z,23.43
2023-05-17T02:24:55.690Z,23.43
2023-05-17T02:25:55.682Z,23.43
2023-05-17T02:26:55.681Z,23.43
2023-05-17T02:27:55.694Z,23.43
2023-05-17T02:28:55.677Z,23.43
2023-05-17T02:29:55.661Z,23.43
2023-05-17T02:30:55.653Z,23.43
2023-05-17T02:31:55.641Z,23.43
2023-05-17T02:32:55.688Z,23.43
2023-05-17T02:33:55.737Z,23.43
2023-05-17T02:34:55.627Z,23.43
2023-05-17T02:35:55.725Z,23.43
2023-05-17T02:36:55.605Z,23.43
2023-05-17T02:37:55.610Z,23.43
2023-05-17T02:38:55.607Z,23.42
2023-05-17T02:39:55.587Z,23.43
2023-05-17T02:40:55.576Z,23.42
2023-05-17T02:41:55.574Z,23.42
2023-05-17T02:42:55.569Z,23.42
2023-05-17T02:43:55.561Z,23.42
2023-05-17T02:44:55.556Z,23.42
2023-05-17T02:45:55.551Z,23.42
2023-05-17T02:46:55.560Z,23.42
2023-05-17T02:47:55.563Z,23.42
2023-05-17T02:48:55.545Z,23.43
2023-05-17T02:49:55.547Z,23.42
2023-05-17T02:50:55.539Z,23.43
2023-05-17T02:51:55.693Z,23.42
2023-05-17T02:52:55.535Z,23.42
2023-05-17T02:53:55.529Z,23.42
2023-05-17T02:54:55.531Z,23.42
2023-05-17T02:55:55.526Z,23.42
2023-05-17T02:56:55.519Z,23.42
2023-05-17T02:57:55.507Z,23.43
2023-05-17T02:58:55.503Z,23.42
2023-05-17T02:59:55.512Z,23.43
2023-05-17T03:00:55.492Z,23.42
2023-05-17T03:01:55.481Z,23.43
2023-05-17T03:02:55.530Z,23.43
2023-05-17T03:03:55.713Z,23.42
2023-05-17T03:04:55.476Z,23.42
2023-05-17T03:05:55.470Z,23.43
2023-05-17T03:06:55.457Z,23.42
2023-05-17T03:07:55.614Z,23.42
2023-05-17T03:08:55.474Z,23.43
2023-05-17T03:09:55.456Z,23.42
2023-05-17T03:10:55.467Z,23.43
2023-05-17T03:11:55.447Z,23.42
2023-05-17T03:12:55.445Z,23.42
2023-05-17T03:13:55.444Z,23.42
2023-05-17T03:14:55.435Z,23.42
2023-05-17T03:15:55.414Z,23.42
2023-05-17T03:16:55.409Z,23.42
2023-05-17T03:17:55.454Z,23.42
2023-05-17T03:18:55.576Z,23.42
2023-05-17T03:19:55.637Z,23.42
2023-05-17T03:20:55.385Z,23.43
2023-05-17T03:21:55.371Z,23.43
2023-05-17T03:22:55.343Z,23.43
2023-05-17T03:23:55.436Z,23.44
2023-05-17T03:24:55.312Z,23.45
2023-05-17T03:25:55.303Z,23.44
2023-05-17T03:26:55.324Z,23.46
2023-05-17T03:27:55.301Z,23.46
2023-05-17T03:28:55.304Z,23.47
2023-05-17T03:29:55.298Z,23.48
2023-05-17T03:30:55.400Z,23.49
2023-05-17T03:31:55.308Z,23.49
2023-05-17T03:32:55.395Z,23.50
2023-05-17T03:33:55.374Z,23.51
2023-05-17T03:34:55.348Z,23.51
2023-05-17T03:35:55.360Z,23.51
2023-05-17T03:36:55.354Z,23.51
2023-05-17T03:37:55.375Z,23.52
2023-05-17T03:38:55.390Z,23.52
2023-05-17T03:39:55.438Z,23.53
2023-05-17T03:40:55.448Z,23.53
2023-05-17T03:41:55.485Z,23.54
2023-05-17T03:42:55.485Z,23.54
2023-05-17T03:43:55.517Z,23.55
2023-05-17T03:44:55.553Z,23.56
2023-05-17T03:45:55.587Z,23.56
2023-05-17T03:46:55.614Z,23.56
2023-05-17T03:47:55.683Z,23.57
2023-05-17T03:48:55.724Z,23.58
2023-05-17T03:49:55.779Z,23.58
2023-05-17T03:50:55.843Z,23.58
2023-05-17T03:51:55.843Z,23.60
2023-05-17T03:52:55.872Z,23.60
2023-05-17T03:53:55.900Z,23.61
2023-05-17T03:54:55.929Z,23.61
2023-05-17T03:55:56.077Z,23.62
2023-05-17T03:56:55.989Z,23.62
2023-05-17T03:57:56.013Z,23.63
2023-05-17T03:58:56.041Z,23.64
2023-05-17T03:59:56.070Z,23.64
2023-05-17T04:00:56.132Z,23.64
2023-05-17T04:01:56.137Z,23.65
2023-05-17T04:02:56.196Z,23.65
2023-05-17T04:03:56.237Z,23.66
2023-05-17T04:04:56.288Z,23.66
2023-05-17T04:05:56.384Z,23.67
2023-05-17T04:06:56.393Z,23.67
2023-05-17T04:07:56.436Z,23.67
2023-05-17T04:08:56.488Z,23.68
2023-05-17T04:09:56.540Z,23.68
2023-05-17T04:10:56.584Z,23.69
2023-05-17T04:11:56.798Z,23.69
2023-05-17T04:12:56.695Z,23.70
2023-05-17T04:13:56.715Z,23.70
2023-05-17T04:14:56.729Z,23.70
2023-05-17T04:15:56.756Z,23.70
2023-05-17T04:16:56.809Z,23.71
2023-05-17T04:17:56.945Z,23.71
2023-05-17T04:18:56.981Z,23.71
2023-05-17T04:19:57.007Z,23.72
2023-05-17T04:20:57.024Z,23.71
2023-05-17T04:21:57.105Z,23.72
2023-05-17T04:22:57.141Z,23.72
2023-05-17T04:23:57.214Z,23.73
2023-05-17T04:24:57.254Z,23.74
2023-05-17T04:25:57.295Z,23.74
2023-05-17T04:26:57.359Z,23.74
2023-05-17T04:27:57.536Z,23.74
2023-05-17T04:28:57.456Z,23.74
2023-05-17T04:29:57.514Z,23.75
2023-05-17T04:30:57.578Z,23.76
2023-05-17T04:31:57.632Z,23.76
2023-05-17T04:32:57.708Z,23.76
2023-05-17T04:33:57.852Z,23.76
2023-05-17T04:34:57.800Z,23.76
2023-05-17T04:35:57.821Z,23.77
2023-05-17T04:36:57.862Z,23.77
2023-05-17T04:37:57.919Z,23.77
2023-05-17T04:38:57.961Z,23.77
2023-05-17T04:39:58.017Z,23.78
2023-05-17T04:40:58.067Z,23.78
2023-05-17T04:41:58.155Z,23.78
2023-05-17T04:42:58.172Z,23.78
2023-05-17T04:43:58.344Z,23.79
2023-05-17T04:44:58.263Z,23.80
2023-05-17T04:45:58.329Z,23.79
2023-05-17T04:46:58.363Z,23.79
2023-05-17T04:47:58.441Z,23.79
2023-05-17T04:48:58.751Z,23.79
2023-05-17T04:49:58.494Z,23.80
2023-05-17T04:50:58.537Z,23.80
2023-05-17T04:51:58.573Z,23.80
2023-05-17T04:52:58.630Z,23.80
2023-05-17T04:53:58.712Z,23.80
2023-05-17T04:54:58.733Z,23.81
2023-05-17T04:55:58.794Z,23.80
2023-05-17T04:56:58.841Z,23.81
2023-05-17T04:57:58.877Z,23.81
2023-05-17T04:58:58.942Z,23.81
2023-05-17T04:59:59.158Z,23.81
2023-05-17T05:00:59.051Z,23.81
2023-05-17T05:01:59.073Z,23.82
2023-05-17T05:02:59.132Z,23.82
2023-05-17T05:03:59.280Z,23.82
2023-05-17T05:04:59.234Z,23.82
2023-05-17T05:05:59.250Z,23.83
2023-05-17T05:06:59.301Z,23.83
2023-05-17T05:07:59.349Z,23.83
2023-05-17T05:08:59.407Z,23.83
2023-05-17T05:09:59.450Z,23.83
2023-05-17T05:10:59.499Z,23.83
2023-05-17T05:11:59.537Z,23.82
2023-05-17T05:12:59.595Z,23.82
2023-05-17T05:13:59.662Z,23.82
2023-05-17T05:15:00.961Z,23.82
2023-05-17T05:16:00.060Z,23.81
2023-05-17T05:16:59.980Z,23.80
2023-05-17T05:18:00.088Z,23.79
2023-05-17T05:19:00.764Z,23.79
2023-05-17T05:20:00.287Z,23.77
2023-05-17T05:21:00.151Z,23.76
2023-05-17T05:22:00.196Z,23.76
2023-05-17T05:23:00.520Z,23.76
2023-05-17T05:24:00.290Z,23.75
2023-05-17T05:25:00.370Z,23.76
2023-05-17T05:26:00.395Z,23.75
2023-05-17T05:27:00.447Z,23.76
2023-05-17T05:28:00.493Z,23.74
2023-05-17T05:29:00.560Z,23.74
2023-05-17T05:30:00.625Z,23.74
2023-05-17T05:31:00.662Z,23.73
2023-05-17T05:32:00.856Z,23.73
2023-05-17T05:33:01.119Z,23.72
2023-05-17T05:34:00.816Z,23.71
2023-05-17T05:35:00.825Z,23.71
2023-05-17T05:36:00.953Z,23.70
2023-05-17T05:37:00.930Z,23.69
2023-05-17T05:38:01.058Z,23.69
2023-05-17T05:39:01.031Z,23.68
2023-05-17T05:40:01.113Z,23.69
2023-05-17T05:41:01.140Z,23.68
2023-05-17T05:42:01.220Z,23.67
2023-05-17T05:43:01.537Z,23.67
2023-05-17T05:44:01.322Z,23.66
2023-05-17T05:45:01.365Z,23.63
2023-05-17T05:46:01.398Z,23.63
2023-05-17T05:47:01.548Z,23.62
2023-05-17T05:48:01.771Z,23.63
2023-05-17T05:49:01.538Z,23.64
2023-05-17T05:50:01.502Z,23.64
2023-05-17T05:51:01.546Z,23.65
2023-05-17T05:52:01.608Z,23.65
2023-05-17T05:53:14.394Z,23.66
2023-05-17T05:54:04.859Z,23.63
2023-05-17T05:55:02.045Z,23.61
2023-05-17T05:57:02.598Z,23.64
2023-05-17T05:58:01.572Z,23.66
2023-05-17T05:59:02.051Z,23.70
2023-05-17T06:00:01.542Z,23.73
2023-05-17T06:01:02.902Z,23.75
2023-05-17T06:02:01.495Z,23.77
2023-05-17T06:03:01.645Z,23.80
2023-05-17T06:04:17.242Z,23.83
2023-05-17T06:05:01.442Z,23.85
2023-05-17T06:06:08.884Z,23.86
2023-05-17T06:07:01.581Z,23.88
2023-05-17T06:08:01.572Z,23.91
2023-05-17T06:09:01.379Z,23.93
2023-05-17T06:10:01.350Z,23.95
2023-05-17T06:11:01.323Z,23.98
2023-05-17T06:12:01.306Z,24.00
2023-05-17T06:13:01.555Z,24.01
2023-05-17T06:14:01.264Z,24.02
2023-05-17T06:15:01.238Z,24.04
2023-05-17T06:16:16.838Z,24.06
2023-05-17T06:17:01.195Z,24.06
2023-05-17T06:18:01.730Z,24.09
2023-05-17T06:19:01.304Z,24.10
2023-05-17T06:20:01.201Z,24.12
2023-05-17T06:21:01.149Z,24.13
2023-05-17T06:22:01.067Z,24.16
2023-05-17T06:23:01.069Z,24.17
2023-05-17T06:24:02.754Z,24.18
2023-05-17T06:25:00.978Z,24.19
2023-05-17T06:26:00.965Z,24.20
2023-05-17T06:27:00.940Z,24.22
2023-05-17T06:28:00.920Z,24.23
2023-05-17T06:29:00.911Z,24.24
2023-05-17T06:30:01.684Z,24.25
2023-05-17T06:31:01.057Z,24.27
2023-05-17T06:32:00.873Z,24.28
2023-05-17T06:33:01.176Z,24.28
2023-05-17T06:34:00.871Z,24.29
2023-05-17T06:35:00.786Z,24.30
2023-05-17T06:36:59.753Z,24.30
2023-05-17T06:38:01.056Z,24.30
2023-05-17T06:39:00.703Z,24.30
2023-05-17T06:40:10.292Z,24.31
2023-05-17T06:41:00.659Z,24.30
2023-05-17T06:42:00.652Z,24.31
2023-05-17T06:43:01.059Z,24.32
2023-05-17T06:44:00.595Z,24.33
2023-05-17T06:45:00.571Z,24.33
2023-05-17T06:46:00.565Z,24.33
2023-05-17T06:47:00.534Z,24.32
2023-05-17T06:48:00.684Z,24.33
2023-05-17T06:49:01.865Z,24.25
2023-05-17T06:50:07.961Z,24.25
2023-05-17T06:51:00.646Z,24.27
2023-05-17T06:52:03.802Z,24.29
2023-05-17T06:53:03.688Z,24.30
2023-05-17T06:54:00.589Z,24.31
2023-05-17T06:55:00.452Z,24.32
2023-05-17T06:57:07.760Z,24.35
2023-05-17T06:58:01.332Z,24.35
2023-05-17T06:59:02.326Z,24.34
2023-05-17T07:00:01.372Z,24.33
2023-05-17T07:01:07.725Z,24.32
2023-05-17T07:02:03.436Z,24.30
2023-05-17T07:04:00.354Z,24.24
2023-05-17T07:05:08.093Z,24.21
2023-05-17T07:06:01.418Z,24.18
2023-05-17T07:07:00.345Z,24.14
2023-05-17T07:08:01.033Z,24.12
2023-05-17T07:09:15.694Z,24.09
2023-05-17T07:10:00.058Z,24.06
2023-05-17T07:11:00.047Z,24.02
2023-05-17T07:12:00.061Z,24.00
2023-05-17T07:13:00.083Z,23.96
2023-05-17T07:13:59.994Z,23.95
2023-05-17T07:14:59.971Z,23.92
2023-05-17T07:15:59.937Z,23.90
2023-05-17T07:16:59.935Z,23.89
2023-05-17T07:18:00.178Z,23.88
2023-05-17T07:19:00.204Z,23.86
2023-05-17T07:20:00.004Z,23.85
2023-05-17T07:20:59.838Z,23.84
2023-05-17T07:21:59.828Z,23.83
2023-05-17T07:22:59.800Z,23.82
2023-05-17T07:24:00.189Z,23.81
2023-05-17T07:24:59.772Z,23.81
2023-05-17T07:25:59.752Z,23.82
2023-05-17T07:26:59.741Z,23.81
2023-05-17T07:27:59.777Z,23.81
2023-05-17T07:28:59.712Z,23.79
2023-05-17T07:30:00.082Z,23.80
2023-05-17T07:30:59.682Z,23.81
2023-05-17T07:31:59.660Z,23.82
2023-05-17T07:33:00.152Z,23.84
2023-05-17T07:33:59.656Z,23.86
2023-05-17T07:35:00.663Z,23.89
2023-05-17T07:36:01.117Z,23.91
2023-05-17T07:36:59.746Z,23.93
2023-05-17T07:38:00.788Z,23.95
2023-05-17T07:39:03.111Z,23.97
2023-05-17T07:40:00.089Z,24.00
2023-05-17T07:40:59.764Z,24.03
2023-05-17T07:42:07.232Z,24.05
2023-05-17T07:43:03.396Z,24.06
2023-05-17T07:43:59.713Z,24.07
2023-05-17T07:44:59.697Z,24.09
2023-05-17T07:45:59.671Z,24.12
2023-05-17T07:47:00.731Z,24.14
2023-05-17T07:48:00.231Z,24.15
2023-05-17T07:48:59.699Z,24.13
2023-05-17T07:49:59.603Z,24.15
2023-05-17T07:50:59.594Z,24.17
2023-05-17T07:52:00.087Z,24.15
2023-05-17T07:52:59.602Z,24.18
2023-05-17T07:53:59.602Z,24.19
2023-05-17T07:54:59.530Z,24.20
2023-05-17T07:55:59.468Z,24.22
2023-05-17T07:56:59.445Z,24.23
2023-05-17T07:58:00.580Z,24.23
2023-05-17T07:59:02.651Z,24.23
2023-05-17T08:00:06.752Z,24.22
2023-05-17T08:01:02.576Z,24.23
2023-05-17T08:02:06.926Z,24.24
2023-05-17T08:02:59.645Z,24.24
2023-05-17T08:03:59.291Z,24.23
2023-05-17T08:04:59.238Z,24.20
2023-05-17T08:05:59.269Z,24.17
2023-05-17T08:06:59.179Z,24.18
2023-05-17T08:07:59.599Z,24.18
2023-05-17T08:08:59.150Z,24.17
2023-05-17T08:09:59.164Z,24.16
2023-05-17T08:10:59.124Z,24.18
2023-05-17T08:11:59.079Z,24.20
2023-05-17T08:12:59.092Z,24.23
2023-05-17T08:13:59.029Z,24.23
2023-05-17T08:14:59.005Z,24.25
2023-05-17T08:16:08.879Z,24.27
2023-05-17T08:16:58.938Z,24.26
2023-05-17T08:18:00.367Z,24.25
2023-05-17T08:18:58.992Z,24.23
2023-05-17T08:19:58.964Z,24.17
2023-05-17T08:20:58.841Z,24.10
2023-05-17T08:21:58.809Z,24.08
2023-05-17T08:22:59.100Z,23.93
2023-05-17T08:23:58.786Z,23.91
2023-05-17T08:24:58.757Z,23.90
2023-05-17T08:25:58.729Z,23.90
2023-05-17T08:26:58.752Z,23.89
2023-05-17T08:27:59.104Z,23.89
2023-05-17T08:28:58.669Z,23.88
2023-05-17T08:29:58.657Z,23.87
2023-05-17T08:30:58.643Z,23.87
2023-05-17T08:31:59.597Z,23.88
2023-05-17T08:32:58.937Z,23.87
2023-05-17T08:33:58.653Z,23.86
2023-05-17T08:34:58.550Z,23.86
2023-05-17T08:35:58.529Z,23.86
2023-05-17T08:36:58.648Z,23.86
2023-05-17T08:37:58.511Z,23.86
2023-05-17T08:38:58.451Z,23.87
2023-05-17T08:39:58.460Z,23.87
2023-05-17T08:40:59.445Z,23.88
2023-05-17T08:41:59.422Z,23.88
2023-05-17T08:43:02.361Z,23.87
2023-05-17T08:43:58.613Z,23.88
2023-05-17T08:44:58.603Z,23.90
2023-05-17T08:46:01.838Z,23.90
2023-05-17T08:46:58.952Z,23.92
2023-05-17T08:47:58.718Z,23.92
2023-05-17T08:48:58.454Z,23.93
2023-05-17T08:49:58.480Z,23.92
2023-05-17T08:50:58.604Z,23.93
2023-05-17T08:51:58.599Z,23.91
2023-05-17T08:52:58.356Z,23.92
2023-05-17T08:53:58.290Z,23.92
2023-05-17T08:54:58.603Z,23.91
2023-05-17T08:55:58.247Z,23.89
2023-05-17T08:56:58.605Z,23.89
2023-05-17T08:57:58.400Z,23.87
2023-05-17T08:58:58.431Z,23.87
2023-05-17T08:59:58.137Z,23.88
2023-05-17T09:00:58.138Z,23.87
2023-05-17T09:01:58.112Z,23.86
2023-05-17T09:02:58.713Z,23.86
2023-05-17T09:03:58.885Z,23.86
2023-05-17T09:04:58.300Z,23.86
2023-05-17T09:05:58.393Z,23.87
2023-05-17T09:06:58.318Z,23.82
2023-05-17T09:07:58.386Z,23.83
2023-05-17T09:08:58.615Z,23.84
2023-05-17T09:09:58.479Z,23.84
2023-05-17T09:10:58.514Z,23.85
2023-05-17T09:11:58.550Z,23.85
2023-05-17T09:12:59.195Z,23.86
2023-05-17T09:13:57.647Z,23.86
2023-05-17T09:14:58.731Z,23.86
2023-05-17T09:15:58.757Z,23.86
2023-05-17T09:16:58.808Z,23.88
2023-05-17T09:17:59.219Z,23.89
2023-05-17T09:18:59.342Z,23.89
2023-05-17T09:19:59.268Z,23.89
2023-05-17T09:20:58.970Z,23.88
2023-05-17T09:21:59.036Z,23.89
2023-05-17T09:22:59.114Z,23.90
2023-05-17T09:24:06.464Z,23.91
2023-05-17T09:24:59.082Z,23.90
2023-05-17T09:25:59.098Z,23.89
2023-05-17T09:26:59.058Z,23.89
2023-05-17T09:28:00.137Z,23.87
2023-05-17T09:28:59.057Z,23.85
2023-05-17T09:29:59.145Z,23.86
2023-05-17T09:30:59.031Z,23.84
2023-05-17T09:31:58.982Z,23.83
2023-05-17T09:32:58.979Z,23.82
2023-05-17T09:34:02.295Z,23.80
2023-05-17T09:34:59.120Z,23.81
2023-05-17T09:35:58.914Z,23.79
2023-05-17T09:36:59.117Z,23.74
2023-05-17T09:38:02.332Z,23.75
2023-05-17T09:38:58.960Z,23.75
2023-05-17T09:39:58.855Z,23.76
2023-05-17T09:41:02.039Z,23.76
2023-05-17T09:41:59.134Z,23.77
2023-05-17T09:42:59.125Z,23.79
2023-05-17T09:43:58.788Z,23.80
2023-05-17T09:44:58.777Z,23.76
2023-05-17T09:45:58.771Z,23.78
2023-05-17T09:46:58.759Z,23.76
2023-05-17T09:48:06.635Z,23.76
2023-05-17T09:48:58.882Z,23.76
2023-05-17T09:49:59.130Z,23.77
2023-05-17T09:51:01.843Z,23.77
2023-05-17T09:51:59.640Z,23.80
2023-05-17T09:52:58.617Z,23.80
2023-05-17T09:53:58.627Z,23.82
2023-05-17T09:54:58.701Z,23.82
2023-05-17T09:55:58.573Z,23.83
2023-05-17T09:56:58.531Z,23.83
2023-05-17T09:57:58.513Z,23.82
2023-05-17T09:58:58.598Z,23.83
2023-05-17T09:59:58.510Z,23.84
2023-05-17T10:00:58.563Z,23.85
2023-05-17T10:01:58.603Z,23.84
2023-05-17T10:02:58.834Z,23.86
2023-05-17T10:03:59.177Z,23.86
2023-05-17T10:04:59.191Z,23.87
2023-05-17T10:05:58.766Z,23.88
2023-05-17T10:06:58.800Z,23.89
2023-05-17T10:07:58.834Z,23.90
2023-05-17T10:08:58.866Z,23.88
2023-05-17T10:09:58.894Z,23.86
2023-05-17T10:10:58.930Z,23.89
2023-05-17T10:11:58.961Z,23.91
2023-05-17T10:12:58.989Z,23.94
2023-05-17T10:13:59.147Z,23.95
2023-05-17T10:14:59.097Z,23.98
2023-05-17T10:15:59.077Z,24.00
2023-05-17T10:17:02.312Z,24.02
2023-05-17T10:17:59.211Z,24.02
2023-05-17T10:18:59.133Z,24.04
2023-05-17T10:19:59.161Z,24.05
2023-05-17T10:20:58.027Z,24.08
2023-05-17T10:22:11.136Z,24.09
2023-05-17T10:22:58.994Z,24.10
2023-05-17T10:24:02.349Z,24.11
2023-05-17T10:24:59.169Z,24.11
2023-05-17T10:25:58.907Z,24.13
2023-05-17T10:26:58.890Z,24.14
2023-05-17T10:27:58.854Z,24.15
2023-05-17T10:28:58.833Z,24.16
2023-05-17T10:29:59.149Z,24.17
2023-05-17T10:30:58.803Z,24.18
2023-05-17T10:31:58.813Z,24.19
2023-05-17T10:32:58.897Z,24.14
2023-05-17T10:33:58.795Z,24.14
2023-05-17T10:35:10.337Z,24.15
2023-05-17T10:35:58.697Z,24.15
2023-05-17T10:36:58.683Z,24.17
2023-05-17T10:37:58.652Z,24.19
2023-05-17T10:38:58.653Z,24.20
2023-05-17T10:39:58.611Z,24.22
2023-05-17T10:40:59.367Z,24.23
2023-05-17T10:42:13.405Z,24.22
2023-05-17T10:42:58.562Z,24.21
2023-05-17T10:43:58.537Z,24.22
2023-05-17T10:44:58.644Z,24.23
2023-05-17T10:45:58.493Z,24.25
2023-05-17T10:46:58.472Z,24.25
2023-05-17T10:48:00.926Z,24.24
2023-05-17T10:48:58.691Z,24.23
2023-05-17T10:49:58.411Z,24.23
2023-05-17T10:51:01.690Z,24.25
2023-05-17T10:51:58.360Z,24.25
2023-05-17T10:52:58.330Z,24.26
2023-05-17T10:53:58.645Z,24.26
2023-05-17T10:54:58.281Z,24.27
2023-05-17T10:55:58.252Z,24.27
2023-05-17T10:56:58.236Z,24.28
2023-05-17T10:57:58.218Z,24.28
2023-05-17T10:58:58.196Z,24.29
2023-05-17T10:59:58.172Z,24.29
2023-05-17T11:00:58.141Z,24.28
2023-05-17T11:01:58.114Z,24.27
2023-05-17T11:02:58.173Z,24.24
2023-05-17T11:03:58.068Z,24.26
2023-05-17T11:04:58.240Z,24.27
2023-05-17T11:05:58.029Z,24.30
2023-05-17T11:06:58.033Z,24.32
2023-05-17T11:07:57.960Z,24.33
2023-05-17T11:08:58.163Z,24.32
2023-05-17T11:09:57.913Z,24.33
2023-05-17T11:10:57.893Z,24.34
2023-05-17T11:11:57.869Z,24.35
2023-05-17T11:12:58.153Z,24.35
2023-05-17T11:13:57.839Z,24.36
2023-05-17T11:14:57.807Z,24.36
2023-05-17T11:15:57.775Z,24.34
2023-05-17T11:16:58.464Z,24.33
2023-05-17T11:17:57.782Z,24.34
2023-05-17T11:18:58.402Z,24.34
2023-05-17T11:19:57.849Z,24.31
2023-05-17T11:20:57.818Z,24.31
2023-05-17T11:21:57.690Z,24.31
2023-05-17T11:22:57.752Z,24.31
2023-05-17T11:23:57.678Z,24.31
2023-05-17T11:24:57.688Z,24.32
2023-05-17T11:26:09.120Z,24.32
2023-05-17T11:26:57.631Z,24.33
2023-05-17T11:27:57.615Z,24.33
2023-05-17T11:28:57.588Z,24.34
2023-05-17T11:29:57.604Z,24.34
2023-05-17T11:30:57.527Z,24.34
2023-05-17T11:31:57.506Z,24.34
2023-05-17T11:32:57.511Z,24.34
2023-05-17T11:33:57.486Z,24.35
2023-05-17T11:34:57.441Z,24.33
2023-05-17T11:35:57.429Z,24.32
2023-05-17T11:36:57.429Z,24.33
2023-05-17T11:37:57.375Z,24.35
2023-05-17T11:39:07.459Z,24.35
2023-05-17T11:39:57.327Z,24.35
2023-05-17T11:40:57.304Z,24.36
2023-05-17T11:41:57.274Z,24.37
2023-05-17T11:42:57.245Z,24.37
2023-05-17T11:43:57.233Z,24.38
2023-05-17T11:44:57.201Z,24.38
2023-05-17T11:45:57.168Z,24.38
2023-05-17T11:46:57.158Z,24.38
2023-05-17T11:47:57.221Z,24.38
2023-05-17T11:48:57.250Z,24.38
2023-05-17T11:49:57.072Z,24.38
2023-05-17T11:50:57.079Z,24.39
2023-05-17T11:51:57.022Z,24.40
2023-05-17T11:52:56.987Z,24.40
2023-05-17T11:53:56.967Z,24.40
2023-05-17T11:54:56.974Z,24.41
2023-05-17T11:55:56.923Z,24.41
2023-05-17T11:56:56.904Z,24.41
2023-05-17T11:57:56.869Z,24.41
2023-05-17T11:58:56.850Z,24.41
2023-05-17T11:59:57.172Z,24.41
2023-05-17T12:00:56.830Z,24.42
2023-05-17T12:01:56.797Z,24.43
2023-05-17T12:02:56.796Z,24.42
2023-05-17T12:03:56.730Z,24.41
2023-05-17T12:04:56.907Z,24.41
2023-05-17T12:05:56.730Z,24.42
2023-05-17T12:06:56.689Z,24.43
2023-05-17T12:07:56.647Z,24.42
2023-05-17T12:08:56.683Z,24.44
2023-05-17T12:09:56.628Z,24.45
2023-05-17T12:10:56.719Z,24.45
2023-05-17T12:11:56.566Z,24.46
2023-05-17T12:12:56.549Z,24.47
2023-05-17T12:13:56.536Z,24.48
2023-05-17T12:14:56.516Z,24.49
2023-05-17T12:15:56.478Z,24.50
2023-05-17T12:16:56.688Z,24.50
2023-05-17T12:17:56.623Z,24.50
2023-05-17T12:18:56.831Z,24.50
2023-05-17T12:19:56.540Z,24.51
2023-05-17T12:20:56.364Z,24.53
2023-05-17T12:21:56.347Z,24.54
2023-05-17T12:22:56.326Z,24.56
2023-05-17T12:23:56.301Z,24.55
2023-05-17T12:24:56.376Z,24.55
2023-05-17T12:25:56.257Z,24.54
2023-05-17T12:26:56.280Z,24.54
2023-05-17T12:27:56.223Z,24.55
2023-05-17T12:28:59.386Z,24.55
2023-05-17T12:29:56.164Z,24.55
2023-05-17T12:30:56.134Z,24.55
2023-05-17T12:31:56.110Z,24.56
2023-05-17T12:32:56.157Z,24.56
2023-05-17T12:33:56.079Z,24.57
2023-05-17T12:34:56.036Z,24.57
2023-05-17T12:35:56.001Z,24.57
2023-05-17T12:36:55.966Z,24.57
2023-05-17T12:37:55.968Z,24.57
2023-05-17T12:38:55.918Z,24.57
2023-05-17T12:39:55.883Z,24.58
2023-05-17T12:40:55.855Z,24.58
2023-05-17T12:41:55.838Z,24.57
2023-05-17T12:42:55.894Z,24.55
2023-05-17T12:44:06.321Z,24.55
2023-05-17T12:44:55.743Z,24.54
2023-05-17T12:45:55.715Z,24.53
2023-05-17T12:46:56.547Z,24.52
2023-05-17T12:47:56.348Z,24.51
2023-05-17T12:48:55.683Z,24.50
2023-05-17T12:49:55.598Z,24.50
2023-05-17T12:50:55.686Z,24.51
2023-05-17T12:51:55.544Z,24.51
2023-05-17T12:52:55.507Z,24.51
2023-05-17T12:53:55.482Z,24.51
2023-05-17T12:54:55.458Z,24.52
2023-05-17T12:55:55.688Z,24.52
2023-05-17T12:56:55.417Z,24.51